createdAt,value
2023-01-17T00:02:25.710Z,99767.50
2023-01-17T00:05:11.265Z,99774.97
2023-01-17T00:07:56.972Z,99768.16
2023-01-17T00:10:26.501Z,99761.03
2023-01-17T00:13:01.947Z,99760.06
2023-01-17T00:15:31.135Z,99760.56
2023-01-17T00:17:59.015Z,99760.91
2023-01-17T00:20:46.627Z,99753.00
2023-01-17T00:23:58.061Z,99749.28
2023-01-17T00:26:25.284Z,99749.91
2023-01-17T00:28:52.984Z,99739.41
2023-01-17T00:31:20.570Z,99743.13
2023-01-17T00:33:47.704Z,99743.97
2023-01-17T00:36:14.665Z,99743.13
2023-01-17T00:38:41.716Z,99753.81
2023-01-17T00:41:11.723Z,99753.97
2023-01-17T00:43:57.985Z,99754.44
2023-01-17T00:46:43.446Z,99749.75
2023-01-17T00:49:28.973Z,99749.44
2023-01-17T00:52:14.437Z,99743.94
2023-01-17T00:54:59.814Z,99753.81
2023-01-17T00:57:45.414Z,99751.88
2023-01-17T01:00:31.495Z,99754.63
2023-01-17T01:03:17.236Z,99751.22
2023-01-17T01:06:02.648Z,99740.09
2023-01-17T01:08:49.458Z,99738.47
2023-01-17T01:11:38.726Z,99736.84
2023-01-17T01:14:26.650Z,99743.97
2023-01-17T01:17:12.385Z,99739.78
2023-01-17T01:19:57.822Z,99732.50
2023-01-17T01:22:43.664Z,99725.38
2023-01-17T01:25:28.934Z,99727.31
2023-01-17T01:28:30.812Z,99709.06
2023-01-17T01:31:20.761Z,99701.94
2023-01-17T01:33:48.109Z,99706.47
2023-01-17T01:36:15.043Z,99680.47
2023-01-17T01:38:41.985Z,99709.38
2023-01-17T01:41:08.936Z,99705.34
2023-01-17T01:43:50.556Z,99694.47
2023-01-17T01:46:30.393Z,99707.22
2023-01-17T01:49:08.453Z,99706.81
2023-01-17T01:51:40.380Z,99710.75
2023-01-17T01:54:23.439Z,99691.59
2023-01-17T01:56:54.008Z,99697.59
2023-01-17T01:59:22.862Z,99687.16
2023-01-17T02:01:52.958Z,99699.16
2023-01-17T02:04:22.525Z,99690.03
2023-01-17T02:06:56.169Z,99696.53
2023-01-17T02:09:24.519Z,99682.78
2023-01-17T02:11:51.564Z,99679.47
2023-01-17T02:14:22.137Z,99685.66
2023-01-17T02:17:18.604Z,99674.72
2023-01-17T02:19:57.187Z,99686.22
2023-01-17T02:22:54.401Z,99677.78
2023-01-17T02:25:48.382Z,99665.69
2023-01-17T02:28:27.243Z,99656.03
2023-01-17T02:31:03.116Z,99665.56
2023-01-17T02:34:00.597Z,99659.78
2023-01-17T02:36:36.674Z,99669.13
2023-01-17T02:39:21.635Z,99657.97
2023-01-17T02:41:55.737Z,99651.34
2023-01-17T02:44:23.000Z,99655.59
2023-01-17T02:46:53.578Z,99641.06
2023-01-17T02:49:24.708Z,99630.06
2023-01-17T02:52:20.670Z,99617.63
2023-01-17T02:54:50.381Z,99610.81
2023-01-17T02:57:40.366Z,99623.44
2023-01-17T03:00:31.022Z,99620.84
2023-01-17T03:02:58.207Z,99626.81
2023-01-17T03:05:32.725Z,99638.47
2023-01-17T03:08:01.882Z,99639.94
2023-01-17T03:10:31.628Z,99651.44
2023-01-17T03:26:49.391Z,99633.13
2023-01-17T03:29:19.810Z,99626.13
2023-01-17T03:31:47.009Z,99624.13
2023-01-17T03:34:14.035Z,99618.78
2023-01-17T03:36:41.115Z,99624.09
2023-01-17T03:39:08.293Z,99621.00
2023-01-17T03:41:35.454Z,99620.19
2023-01-17T03:44:02.603Z,99606.47
2023-01-17T03:46:29.749Z,99626.13
2023-01-17T03:48:56.858Z,99611.72
2023-01-17T03:51:23.884Z,99617.38
2023-01-17T03:53:52.153Z,99619.13
2023-01-17T03:56:19.364Z,99620.91
2023-01-17T03:58:46.420Z,99616.06
2023-01-17T04:01:13.641Z,99621.38
2023-01-17T04:03:40.931Z,99617.75
2023-01-17T04:06:08.022Z,99621.81
2023-01-17T04:08:35.016Z,99627.31
2023-01-17T04:11:02.076Z,99629.22
2023-01-17T04:13:29.166Z,99630.88
2023-01-17T04:15:56.508Z,99627.69
2023-01-17T04:18:24.778Z,99623.63
2023-01-17T04:20:52.025Z,99633.19
2023-01-17T04:23:19.263Z,99638.13
2023-01-17T04:25:46.036Z,99619.09
2023-01-17T04:28:13.222Z,99618.19
2023-01-17T04:30:40.701Z,99623.88
2023-01-17T04:33:07.707Z,99640.41
2023-01-17T04:35:34.806Z,99635.84
2023-01-17T04:38:01.858Z,99631.50
2023-01-17T04:40:29.751Z,99628.53
2023-01-17T04:42:58.034Z,99628.88
2023-01-17T04:45:25.170Z,99641.28
2023-01-17T04:47:52.232Z,99644.56
2023-01-17T04:50:19.377Z,99637.13
2023-01-17T04:52:46.288Z,99632.69
2023-01-17T04:55:13.339Z,99630.25
2023-01-17T04:57:40.388Z,99643.38
2023-01-17T05:00:08.513Z,99651.50
2023-01-17T05:02:35.591Z,99649.75
2023-01-17T05:05:02.604Z,99644.44
2023-01-17T05:07:29.633Z,99653.91
2023-01-17T05:09:56.660Z,99643.00
2023-01-17T05:12:23.629Z,99639.72
2023-01-17T05:14:50.573Z,99646.75
2023-01-17T05:17:17.622Z,99637.16
2023-01-17T05:19:45.177Z,99655.69
2023-01-17T05:22:16.348Z,99643.94
2023-01-17T05:24:47.976Z,99647.56
2023-01-17T05:27:15.667Z,99649.00
2023-01-17T05:29:42.776Z,99640.47
2023-01-17T05:32:09.918Z,99648.09
2023-01-17T05:34:37.045Z,99644.59
2023-01-17T05:37:04.029Z,99649.38
2023-01-17T05:39:31.281Z,99660.06
2023-01-17T05:41:59.275Z,99655.72
2023-01-17T05:44:27.932Z,99672.09
2023-01-17T05:46:55.410Z,99669.84
2023-01-17T05:49:22.564Z,99667.78
2023-01-17T05:51:49.780Z,99670.22
2023-01-17T05:54:17.212Z,99675.53
2023-01-17T05:56:44.081Z,99683.97
2023-01-17T05:59:13.243Z,99676.63
2023-01-17T06:01:41.230Z,99679.16
2023-01-17T06:04:08.176Z,99691.00
2023-01-17T06:06:35.237Z,99689.50
2023-01-17T06:09:02.324Z,99681.47
2023-01-17T06:11:29.354Z,99677.66
2023-01-17T06:13:56.238Z,99683.75
2023-01-17T06:16:23.369Z,99683.88
2023-01-17T06:18:50.608Z,99690.31
2023-01-17T06:21:17.676Z,99680.88
2023-01-17T06:23:44.594Z,99681.69
2023-01-17T06:26:11.709Z,99676.75
2023-01-17T06:28:38.666Z,99674.66
2023-01-17T06:31:09.503Z,99681.47
2023-01-17T06:33:36.904Z,99682.38
2023-01-17T06:36:04.312Z,99687.19
2023-01-17T06:38:31.463Z,99681.56
2023-01-17T06:41:00.478Z,99687.75
2023-01-17T06:43:32.653Z,99690.88
2023-01-17T06:46:01.080Z,99688.84
2023-01-17T06:48:28.394Z,99696.03
2023-01-17T06:50:58.086Z,99687.66
2023-01-17T06:53:25.356Z,99706.59
2023-01-17T06:55:55.288Z,99717.88
2023-01-17T06:58:22.212Z,99712.69
2023-01-17T07:00:49.714Z,99720.38
2023-01-17T07:03:25.124Z,99725.56
2023-01-17T07:05:53.217Z,99715.09
2023-01-17T07:08:20.639Z,99721.13
2023-01-17T07:10:48.707Z,99721.13
2023-01-17T07:13:15.886Z,99732.66
2023-01-17T07:15:42.876Z,99724.88
2023-01-17T07:18:09.822Z,99737.28
2023-01-17T07:20:38.555Z,99732.59
2023-01-17T07:23:06.420Z,99742.25
2023-01-17T07:25:33.374Z,99736.69
2023-01-17T07:28:00.395Z,99734.22
2023-01-17T07:30:27.501Z,99731.13
2023-01-17T07:32:54.828Z,99739.84
2023-01-17T07:35:22.638Z,99746.19
2023-01-17T07:37:50.707Z,99740.31
2023-01-17T07:40:19.113Z,99736.88
2023-01-17T07:42:46.887Z,99737.28
2023-01-17T07:45:16.113Z,99746.88
2023-01-17T07:47:43.980Z,99744.25
2023-01-17T07:50:11.523Z,99738.16
2023-01-17T07:52:38.532Z,99733.81
2023-01-17T07:55:06.313Z,99733.09
2023-01-17T07:57:33.324Z,99741.59
2023-01-17T08:00:00.244Z,99736.41
2023-01-17T08:02:27.245Z,99742.47
2023-01-17T08:04:54.242Z,99724.94
2023-01-17T08:07:21.365Z,99725.84
2023-01-17T08:09:50.357Z,99719.94
2023-01-17T08:12:17.627Z,99738.03
2023-01-17T08:14:45.097Z,99729.31
2023-01-17T08:17:17.019Z,99710.91
2023-01-17T08:19:45.072Z,99723.91
2023-01-17T08:22:15.124Z,99708.47
2023-01-17T08:24:42.281Z,99723.41
2023-01-17T08:27:09.281Z,99722.28
2023-01-17T08:29:36.773Z,99713.88
2023-01-17T08:32:04.302Z,99705.44
2023-01-17T08:34:33.496Z,99711.44
2023-01-17T08:37:00.381Z,99704.94
2023-01-17T08:39:27.911Z,99686.81
2023-01-17T08:41:54.978Z,99691.53
2023-01-17T08:44:22.083Z,99679.59
2023-01-17T08:46:49.767Z,99687.13
2023-01-17T08:49:16.745Z,99675.38
2023-01-17T08:51:43.774Z,99670.66
2023-01-17T08:54:13.004Z,99671.00
2023-01-17T08:56:40.006Z,99687.97
2023-01-17T08:59:07.005Z,99682.81
2023-01-17T09:01:40.990Z,99697.41
2023-01-17T09:04:08.670Z,99705.00
2023-01-17T09:06:41.381Z,99687.19
2023-01-17T09:09:11.342Z,99691.84
2023-01-17T09:11:38.594Z,99691.81
2023-01-17T09:14:05.758Z,99673.81
2023-01-17T09:16:32.720Z,99671.03
2023-01-17T09:18:59.952Z,99663.06
2023-01-17T09:21:27.267Z,99659.84
2023-01-17T09:23:55.678Z,99660.03
2023-01-17T09:26:27.954Z,99648.47
2023-01-17T09:28:55.935Z,99636.28
2023-01-17T09:31:23.980Z,99631.59
2023-01-17T09:33:52.285Z,99637.66
2023-01-17T09:36:19.517Z,99637.50
2023-01-17T09:38:46.949Z,99628.75
2023-01-17T09:41:43.604Z,99630.19
2023-01-17T09:44:25.173Z,99630.66
2023-01-17T09:47:00.208Z,99637.88
2023-01-17T09:49:43.459Z,99629.25
2023-01-17T09:52:17.770Z,99628.41
2023-01-17T09:54:47.887Z,99634.16
2023-01-17T09:57:36.344Z,99636.34
2023-01-17T10:00:25.144Z,99638.47
2023-01-17T10:03:34.026Z,99635.03
2023-01-17T10:06:28.957Z,99638.22
2023-01-17T10:09:24.116Z,99643.44
2023-01-17T10:12:22.757Z,99628.34
2023-01-17T10:15:16.564Z,99630.75
2023-01-17T10:18:02.505Z,99617.41
2023-01-17T10:20:54.294Z,99628.13
2023-01-17T10:23:46.051Z,99615.69
2023-01-17T10:26:18.811Z,99626.16
2023-01-17T10:28:51.738Z,99622.00
2023-01-17T10:31:21.795Z,99612.50
2023-01-17T10:34:11.225Z,99602.84
2023-01-17T10:36:42.085Z,99595.41
2023-01-17T10:39:21.357Z,99593.69
2023-01-17T10:41:58.680Z,99598.28
2023-01-17T10:44:33.176Z,99587.72
2023-01-17T10:47:20.352Z,99597.16
2023-01-17T10:49:53.808Z,99596.63
2023-01-17T10:52:48.103Z,99594.34
2023-01-17T10:55:23.998Z,99582.00
2023-01-17T10:57:53.248Z,99575.34
2023-01-17T11:00:52.528Z,99574.22
2023-01-17T11:03:24.058Z,99582.91
2023-01-17T11:06:16.080Z,99582.09
2023-01-17T11:09:07.046Z,99576.50
2023-01-17T11:11:36.339Z,99570.91
2023-01-17T11:14:14.427Z,99576.72
2023-01-17T11:16:41.690Z,99562.53
2023-01-17T11:19:17.471Z,99558.59
2023-01-17T11:21:54.503Z,99566.34
2023-01-17T11:24:30.547Z,99557.81
2023-01-17T11:26:58.581Z,99562.06
2023-01-17T11:29:36.865Z,99562.47
2023-01-17T11:32:36.670Z,99558.69
2023-01-17T11:35:15.758Z,99545.41
2023-01-17T11:38:10.218Z,99550.94
2023-01-17T11:40:41.527Z,99537.50
2023-01-17T11:43:11.613Z,99544.41
2023-01-17T11:45:41.795Z,99539.44
2023-01-17T11:48:13.499Z,99538.19
2023-01-17T11:50:59.909Z,99535.81
2023-01-17T11:53:37.228Z,99530.47
2023-01-17T11:56:11.708Z,99535.97
2023-01-17T11:58:41.788Z,99538.38
2023-01-17T12:01:17.282Z,99532.50
2023-01-17T12:04:00.714Z,99529.09
2023-01-17T12:06:58.036Z,99532.00
2023-01-17T12:09:25.529Z,99540.34
2023-01-17T12:12:35.608Z,99537.13
2023-01-17T12:15:19.791Z,99539.09
2023-01-17T12:18:09.180Z,99524.16
2023-01-17T12:21:02.827Z,99515.06
2023-01-17T12:23:48.595Z,99524.84
2023-01-17T12:26:23.988Z,99521.06
2023-01-17T12:29:20.074Z,99525.41
2023-01-17T12:32:06.581Z,99529.09
2023-01-17T12:34:37.480Z,99523.47
2023-01-17T12:37:37.215Z,99519.16
2023-01-17T12:40:25.391Z,99529.97
2023-01-17T12:42:58.824Z,99531.94
2023-01-17T12:45:33.879Z,99524.84
2023-01-17T12:48:30.803Z,99527.63
2023-01-17T12:51:21.815Z,99515.38
2023-01-17T12:54:05.448Z,99521.41
2023-01-17T12:56:46.276Z,99516.94
2023-01-17T12:59:16.343Z,99506.09
2023-01-17T13:01:58.780Z,99515.31
2023-01-17T13:04:58.016Z,99519.75
2023-01-17T13:07:49.670Z,99530.41
2023-01-17T13:10:26.864Z,99519.25
2023-01-17T13:12:59.285Z,99521.59
2023-01-17T13:15:35.445Z,99521.91
2023-01-17T13:18:26.090Z,99530.56
2023-01-17T13:21:29.656Z,99529.00
2023-01-17T13:24:31.477Z,99536.53
2023-01-17T13:27:17.409Z,99544.03
2023-01-17T13:30:10.226Z,99542.06
2023-01-17T13:33:12.327Z,99541.22
2023-01-17T13:35:46.701Z,99531.22
2023-01-17T13:38:28.101Z,99535.53
2023-01-17T13:41:01.460Z,99542.22
2023-01-17T13:43:40.621Z,99537.47
2023-01-17T13:46:08.944Z,99541.88
2023-01-17T13:48:38.524Z,99550.16
2023-01-17T13:51:08.091Z,99547.44
2023-01-17T13:53:35.074Z,99545.84
2023-01-17T13:56:14.459Z,99554.31
2023-01-17T13:58:50.641Z,99559.00
2023-01-17T14:01:24.255Z,99561.50
2023-01-17T14:03:51.725Z,99549.16
2023-01-17T14:06:44.871Z,99553.53
2023-01-17T14:09:20.911Z,99549.53
2023-01-17T14:11:52.668Z,99558.50
2023-01-17T14:14:42.124Z,99547.59
2023-01-17T14:17:20.368Z,99548.72
2023-01-17T14:19:50.789Z,99551.28
2023-01-17T14:22:20.951Z,99542.22
2023-01-17T14:25:02.788Z,99548.91
2023-01-17T14:27:34.735Z,99552.34
2023-01-17T14:30:16.430Z,99554.47
2023-01-17T14:33:02.368Z,99567.44
2023-01-17T14:35:35.588Z,99573.81
2023-01-17T14:38:05.649Z,99578.44
2023-01-17T14:40:35.443Z,99576.00
2023-01-17T14:43:14.341Z,99587.25
2023-01-17T14:45:43.598Z,99585.66
2023-01-17T14:48:29.499Z,99584.84
2023-01-17T14:51:00.150Z,99580.94
2023-01-17T14:53:32.004Z,99590.09
2023-01-17T14:56:13.276Z,99584.03
2023-01-17T14:58:41.355Z,99590.44
2023-01-17T15:01:15.613Z,99592.22
2023-01-17T15:03:50.179Z,99600.41
2023-01-17T15:06:21.024Z,99597.69
2023-01-17T15:08:50.182Z,99604.03
2023-01-17T15:11:24.752Z,99609.38
2023-01-17T15:29:00.452Z,99610.56
2023-01-17T15:31:51.669Z,99612.31
2023-01-17T15:34:43.285Z,99626.81
2023-01-17T15:37:22.515Z,99624.91
2023-01-17T15:39:49.711Z,99630.34
2023-01-17T15:42:24.302Z,99627.94
2023-01-17T15:44:57.895Z,99633.03
2023-01-17T15:47:31.762Z,99638.84
2023-01-17T15:50:00.294Z,99640.94
2023-01-17T15:52:28.169Z,99634.25
2023-01-17T15:57:39.883Z,99619.94
2023-01-17T16:00:36.962Z,99627.03
2023-01-17T16:03:29.443Z,99623.09
2023-01-17T16:06:00.259Z,99628.16
2023-01-17T16:08:32.516Z,99631.66
2023-01-17T16:11:02.478Z,99634.47
2023-01-17T16:13:32.187Z,99626.84
2023-01-17T16:16:13.472Z,99633.06
2023-01-17T16:18:40.959Z,99620.81
2023-01-17T16:21:31.762Z,99629.50
2023-01-17T16:23:59.916Z,99630.47
2023-01-17T16:26:29.130Z,99630.75
2023-01-17T16:28:56.459Z,99638.59
2023-01-17T16:31:23.452Z,99633.63
2023-01-17T16:33:50.801Z,99636.47
2023-01-17T16:36:17.958Z,99649.56
2023-01-17T16:38:45.966Z,99644.03
2023-01-17T16:41:13.086Z,99643.19
2023-01-17T16:43:40.247Z,99638.44
2023-01-17T16:46:07.394Z,99641.19
2023-01-17T16:48:34.416Z,99643.19
2023-01-17T16:51:05.860Z,99641.31
2023-01-17T16:53:32.776Z,99638.50
2023-01-17T16:56:08.032Z,99646.28
2023-01-17T16:58:35.120Z,99640.84
2023-01-17T17:01:02.172Z,99647.28
2023-01-17T17:03:29.840Z,99654.03
2023-01-17T17:05:58.972Z,99665.25
2023-01-17T17:08:28.914Z,99658.97
2023-01-17T17:11:13.278Z,99659.69
2023-01-17T17:13:45.196Z,99658.91
2023-01-17T17:16:20.580Z,99655.97
2023-01-17T17:18:55.389Z,99654.56
2023-01-17T17:21:22.537Z,99652.34
2023-01-17T17:23:56.806Z,99647.88
2023-01-17T17:26:31.107Z,99647.34
2023-01-17T17:28:58.715Z,99654.69
2023-01-17T17:31:26.125Z,99645.00
2023-01-17T17:33:53.648Z,99639.50
2023-01-17T17:36:20.914Z,99636.09
2023-01-17T17:38:54.039Z,99636.47
2023-01-17T17:41:23.850Z,99638.44
2023-01-17T17:43:52.359Z,99642.47
2023-01-17T17:46:21.043Z,99645.88
2023-01-17T17:48:48.465Z,99648.97
2023-01-17T17:51:31.579Z,99645.84
2023-01-17T17:54:02.589Z,99651.66
2023-01-17T17:56:31.382Z,99654.13
2023-01-17T17:58:59.341Z,99654.28
2023-01-17T18:01:26.663Z,99651.91
2023-01-17T18:04:00.541Z,99655.53
2023-01-17T18:06:27.591Z,99664.66
2023-01-17T18:08:54.627Z,99663.41
2023-01-17T18:11:24.200Z,99662.09
2023-01-17T18:13:52.485Z,99651.75
2023-01-17T18:16:22.309Z,99663.25
2023-01-17T18:18:51.549Z,99666.97
2023-01-17T18:21:25.331Z,99668.22
2023-01-17T18:23:55.532Z,99665.94
2023-01-17T18:26:28.572Z,99669.16
2023-01-17T18:28:56.829Z,99670.28
2023-01-17T18:31:25.433Z,99664.91
2023-01-17T18:33:54.222Z,99663.97
2023-01-17T18:36:23.454Z,99663.72
2023-01-17T18:38:51.246Z,99659.59
2023-01-17T18:41:23.932Z,99651.63
2023-01-17T18:43:51.769Z,99648.38
2023-01-17T18:46:20.276Z,99649.16
2023-01-17T18:48:47.808Z,99655.44
2023-01-17T18:51:17.151Z,99656.59
2023-01-17T18:53:45.989Z,99646.38
2023-01-17T18:56:16.038Z,99655.19
2023-01-17T18:58:45.209Z,99669.06
2023-01-17T19:01:18.559Z,99652.91
2023-01-17T19:03:47.620Z,99654.06
2023-01-17T19:06:18.006Z,99645.00
2023-01-17T19:08:45.276Z,99658.00
2023-01-17T19:11:12.873Z,99656.97
2023-01-17T19:13:41.910Z,99643.59
2023-01-17T19:16:13.991Z,99634.56
2023-01-17T19:18:41.713Z,99632.25
2023-01-17T19:21:14.191Z,99624.53
2023-01-17T19:23:41.643Z,99635.91
2023-01-17T19:26:09.667Z,99637.31
2023-01-17T19:28:45.705Z,99639.25
2023-01-17T19:31:27.439Z,99650.31
2023-01-17T19:33:57.666Z,99646.34
2023-01-17T19:36:31.290Z,99648.66
2023-01-17T19:39:04.951Z,99641.38
2023-01-17T19:41:34.581Z,99634.38
2023-01-17T19:44:04.445Z,99640.09
2023-01-17T19:46:32.475Z,99632.72
2023-01-17T19:48:59.743Z,99632.69
2023-01-17T19:51:27.254Z,99627.81
2023-01-17T19:53:54.913Z,99637.09
2023-01-17T19:56:24.929Z,99632.47
2023-01-17T19:58:52.467Z,99648.97
2023-01-17T20:01:22.695Z,99638.41
2023-01-17T20:03:51.008Z,99647.63
2023-01-17T20:06:21.528Z,99645.59
2023-01-17T20:08:48.694Z,99643.06
2023-01-17T20:11:18.704Z,99630.41
2023-01-17T20:13:46.970Z,99632.84
2023-01-17T20:16:16.678Z,99628.84
2023-01-17T20:18:44.161Z,99629.78
2023-01-17T20:21:14.153Z,99623.22
2023-01-17T20:23:43.126Z,99620.47
2023-01-17T20:26:15.436Z,99623.94
2023-01-17T20:28:44.002Z,99619.81
2023-01-17T20:31:20.219Z,99623.38
2023-01-17T20:33:50.511Z,99627.06
2023-01-17T20:36:18.739Z,99618.34
2023-01-17T20:38:46.872Z,99621.09
2023-01-17T20:41:40.465Z,99626.50
2023-01-17T20:44:09.785Z,99631.50
2023-01-17T20:46:41.229Z,99619.66
2023-01-17T20:49:15.459Z,99622.78
2023-01-17T20:51:44.358Z,99620.59
2023-01-17T20:54:14.486Z,99630.69
2023-01-17T20:56:42.082Z,99630.25
2023-01-17T20:59:13.079Z,99628.06
2023-01-17T21:01:40.059Z,99619.13
2023-01-17T21:04:10.245Z,99605.19
2023-01-17T21:06:41.473Z,99615.06
2023-01-17T21:09:12.484Z,99619.56
2023-01-17T21:11:39.385Z,99609.66
2023-01-17T21:14:06.662Z,99612.31
2023-01-17T21:16:35.183Z,99601.66
2023-01-17T21:19:02.791Z,99607.72
2023-01-17T21:21:30.161Z,99605.75
2023-01-17T21:23:58.993Z,99604.84
2023-01-17T21:26:28.011Z,99605.06
2023-01-17T21:28:55.776Z,99607.03
2023-01-17T21:31:26.030Z,99601.38
2023-01-17T21:33:58.618Z,99598.41
2023-01-17T21:36:28.820Z,99603.00
2023-01-17T21:38:58.509Z,99599.56
2023-01-17T21:41:31.310Z,99599.44
2023-01-17T21:44:01.027Z,99600.59
2023-01-17T21:46:29.269Z,99596.13
2023-01-17T21:48:57.695Z,99594.97
2023-01-17T21:51:45.031Z,99591.44
2023-01-17T21:54:11.944Z,99594.31
2023-01-17T21:56:57.464Z,99605.09
2023-01-17T21:59:24.576Z,99597.88
2023-01-17T22:01:51.565Z,99595.34
2023-01-17T22:04:18.497Z,99587.28
2023-01-17T22:06:45.402Z,99596.03
2023-01-17T22:09:12.351Z,99580.72
2023-01-17T22:11:39.389Z,99566.09
2023-01-17T22:14:07.522Z,99580.38
2023-01-17T22:16:34.576Z,99577.25
2023-01-17T22:19:01.559Z,99582.09
2023-01-17T22:21:28.762Z,99562.63
2023-01-17T22:23:58.355Z,99575.88
2023-01-17T22:26:30.019Z,99568.41
2023-01-17T22:29:00.346Z,99559.75
2023-01-17T22:31:28.163Z,99555.84
2023-01-17T22:34:01.817Z,99562.50
2023-01-17T22:36:32.045Z,99566.31
2023-01-17T22:38:59.040Z,99565.50
2023-01-17T22:41:31.373Z,99562.16
2023-01-17T22:44:00.004Z,99554.47
2023-01-17T22:46:29.212Z,99538.09
2023-01-17T22:48:57.204Z,99540.38
2023-01-17T22:51:25.531Z,99529.69
2023-01-17T22:53:57.868Z,99522.63
2023-01-17T22:56:29.307Z,99519.97
2023-01-17T22:58:56.551Z,99522.75
2023-01-17T23:01:31.231Z,99514.03
2023-01-17T23:04:04.178Z,99521.13
2023-01-17T23:06:37.150Z,99514.19
2023-01-17T23:09:07.134Z,99551.28
2023-01-17T23:11:39.742Z,99543.38
2023-01-17T23:14:52.735Z,99541.75
2023-01-17T23:17:59.222Z,99520.84
2023-01-17T23:20:26.154Z,99519.94
2023-01-17T23:22:53.151Z,99512.97
2023-01-17T23:25:20.359Z,99508.69
2023-01-17T23:28:06.345Z,99508.06
2023-01-17T23:30:36.966Z,99514.38
2023-01-17T23:33:13.952Z,99509.78
2023-01-17T23:35:43.484Z,99503.44
2023-01-17T23:38:29.698Z,99511.25
2023-01-17T23:41:26.457Z,99511.19
2023-01-17T23:43:55.433Z,99518.97
2023-01-17T23:46:24.205Z,99514.88
2023-01-17T23:48:51.320Z,99519.56
2023-01-17T23:51:18.616Z,99523.91
2023-01-17T23:53:45.563Z,99531.34
2023-01-17T23:56:19.071Z,99523.28
2023-01-17T23:58:46.693Z,99522.22
